Thedford, NE

4:46 AM CST on February 23, 2017 (GMT -0600)
Thedford | | Change Station
Active Advisory: Winter Storm Warning

Elev 2927 ft 41.96 °N, 100.57 °W | Updated 11 minutes ago

Overcast
Overcast
32 °F
Feels Like 22 °F
N
14
Wind Variable Wind from NE
Gusts 22 mph

Today
High -- | Low -- °F
--% Chance of Precip.
Yesterday
High -- | Low -- °F
Precip. -- in
Pressure 29.81 in
Visibility 7.0 miles
Clouds Overcast 300 ft
Windchill 22 °F
Dew Point 32 °F
Humidity 99%
Rainfall 0.00 in
Snow Depth Not available.
7:26 AM 6:25 PM
Waning Crescent, 11% visible
METAR KTIF 231035Z AUTO 04012G19KT 7SM OVC003 00/00 A2981 RMK AO2 T00001001
Pressure 29.81 in
Visibility 7.0 miles
Clouds Overcast 300 ft
Windchill 22 °F
Dew Point 32 °F
Humidity 99%
Rainfall 0.00 in
Snow Depth Not available.
7:26 AM 6:25 PM
Waning Crescent, 11% visible
METAR KTIF 231035Z AUTO 04012G19KT 7SM OVC003 00/00 A2981 RMK AO2 T00001001

Get Your Daily Forecast Email!

Thanks for signing up!

Be on the lookout for a verification email in your inbox.

You'll start receiving the daily forecast at 8 AM.

×

10-Day Weather Forecast

Almanac

Astronomy

Feb. 23, 2017 Rise Set
Actual Time
Civil Twilight
Nautical Twilight
Astronomical Twilight
Moon
Length of Visible Light
Length of Day
Tomorrow will be .
, % of the Moon is Illuminated

Today's Extremes

State Highs State Lows

Community

WunderPhotos

Upload Photos

1,962,540 photos uploaded!

WunderBlog® & News

Nearby

Air Quality

  Air Quality AQ Index Pollutant
Not available.

Snow Depth

Station Depth Elevation

Earthquake Activity

City Distance Mag. Time & Date
Minimum magnitude displayed is 2.5.

Coastal Water Temperatures

Place Temperature

Stations

Nearby Weather Stations

Station Location Temp. Windchill Dew Point Humidity Wind Precip. Elev Updated Type
                   

Watches & Warnings

Winter Storm Warning
Issued: 2:26 AM MST Feb. 23, 2017 – National Weather Service

... Winter Storm Warning remains in effect until 6 PM CST /5 PM
MST/ Friday...

A Winter Storm Warning remains in effect until 6 PM CST /5 PM
MST/ Friday.

* Snowfall rates of 1 to 2 inches per hour will occur today and
this evening.

* Total snow accumulations of 8 to 18 inches are expected. The
heaviest amounts will be along the Highway 20 corridor west of
Ainsworth.

* Visibility 1/4 mile in heavy snow. Locally... blizzard
conditions could develop in open areas tonight and Friday.

* North winds of 15 to 25 mph with higher gusts will cause
significant blowing and drifting snow.

* Travel will be very difficult to impossible... especially
tonight. Ranchers should take precautions to protect Young
livestock.

Precautionary/preparedness actions...

A Winter Storm Warning for snow means severe winter weather
conditions are expected. If you must travel... keep an extra
flashlight... food and water in your vehicle in case of an
emergency. The latest Road conditions for the state you are
calling from can be obtained by calling 5 1 1.